sensor_id;sensor_type;location;lat;lon;timestamp;pressure;altitude;pressure_sealevel;temperature;humidity
51460;BME280;37534;39.772;2.718;2023-04-19T00:01:23;101326.19;;;10.71;100.00
51460;BME280;37534;39.772;2.718;2023-04-19T00:03:49;101324.94;;;10.42;100.00
51460;BME280;37534;39.772;2.718;2023-04-19T00:06:15;101319.13;;;10.26;100.00
51460;BME280;37534;39.772;2.718;2023-04-19T00:08:42;101324.38;;;10.23;100.00
51460;BME280;37534;39.772;2.718;2023-04-19T00:11:08;101323.50;;;10.21;100.00
51460;BME280;37534;39.772;2.718;2023-04-19T00:13:34;101314.22;;;10.13;100.00
51460;BME280;37534;39.772;2.718;2023-04-19T00:16:00;101320.00;;;10.27;100.00
51460;BME280;37534;39.772;2.718;2023-04-19T00:18:25;101315.81;;;10.20;100.00
51460;BME280;37534;39.772;2.718;2023-04-19T00:20:51;101306.50;;;10.09;100.00
51460;BME280;37534;39.772;2.718;2023-04-19T00:23:17;101312.47;;;10.15;100.00
51460;BME280;37534;39.772;2.718;2023-04-19T00:25:44;101315.13;;;10.07;100.00
51460;BME280;37534;39.772;2.718;2023-04-19T00:28:10;101309.16;;;10.03;100.00
51460;BME280;37534;39.772;2.718;2023-04-19T00:30:35;101303.19;;;10.01;100.00
51460;BME280;37534;39.772;2.718;2023-04-19T00:33:01;101313.09;;;10.32;100.00
51460;BME280;37534;39.772;2.718;2023-04-19T00:35:26;101311.38;;;10.28;100.00
51460;BME280;37534;39.772;2.718;2023-04-19T00:37:52;101303.94;;;10.09;100.00
51460;BME280;37534;39.772;2.718;2023-04-19T00:40:17;101297.06;;;10.07;100.00
51460;BME280;37534;39.772;2.718;2023-04-19T00:42:43;101296.44;;;9.91;100.00
51460;BME280;37534;39.772;2.718;2023-04-19T00:45:09;101310.13;;;9.96;100.00
51460;BME280;37534;39.772;2.718;2023-04-19T00:47:35;101308.31;;;10.04;100.00
51460;BME280;37534;39.772;2.718;2023-04-19T00:50:02;101301.72;;;9.82;100.00
51460;BME280;37534;39.772;2.718;2023-04-19T00:52:28;101303.50;;;9.77;100.00
51460;BME280;37534;39.772;2.718;2023-04-19T00:54:54;101294.78;;;9.87;100.00
51460;BME280;37534;39.772;2.718;2023-04-19T00:57:20;101276.13;;;9.69;100.00
51460;BME280;37534;39.772;2.718;2023-04-19T00:59:47;101284.69;;;9.71;100.00
51460;BME280;37534;39.772;2.718;2023-04-19T01:02:12;101288.84;;;9.80;100.00
51460;BME280;37534;39.772;2.718;2023-04-19T01:04:38;101287.25;;;9.73;100.00
51460;BME280;37534;39.772;2.718;2023-04-19T01:07:03;101281.41;;;9.60;100.00
51460;BME280;37534;39.772;2.718;2023-04-19T01:09:29;101273.69;;;9.57;100.00
51460;BME280;37534;39.772;2.718;2023-04-19T01:11:55;101276.94;;;9.73;100.00
51460;BME280;37534;39.772;2.718;2023-04-19T01:14:21;101279.53;;;9.71;100.00
51460;BME280;37534;39.772;2.718;2023-04-19T01:16:46;101286.50;;;9.66;100.00
51460;BME280;37534;39.772;2.718;2023-04-19T01:19:12;101277.97;;;9.61;100.00
51460;BME280;37534;39.772;2.718;2023-04-19T01:21:37;101277.16;;;9.58;100.00
51460;BME280;37534;39.772;2.718;2023-04-19T01:24:05;101278.88;;;9.56;100.00
51460;BME280;37534;39.772;2.718;2023-04-19T01:26:30;101263.53;;;9.46;100.00
51460;BME280;37534;39.772;2.718;2023-04-19T01:28:56;101269.50;;;9.50;100.00
51460;BME280;37534;39.772;2.718;2023-04-19T01:31:22;101271.75;;;9.76;100.00
51460;BME280;37534;39.772;2.718;2023-04-19T01:33:47;101268.47;;;9.66;100.00
51460;BME280;37534;39.772;2.718;2023-04-19T01:36:13;101266.94;;;9.50;100.00
51460;BME280;37534;39.772;2.718;2023-04-19T01:38:38;101267.81;;;9.49;100.00
51460;BME280;37534;39.772;2.718;2023-04-19T01:41:04;101261.91;;;9.41;100.00
51460;BME280;37534;39.772;2.718;2023-04-19T01:43:30;101266.19;;;9.43;100.00
51460;BME280;37534;39.772;2.718;2023-04-19T01:45:56;101267.66;;;9.61;100.00
51460;BME280;37534;39.772;2.718;2023-04-19T01:48:21;101257.50;;;9.49;100.00
51460;BME280;37534;39.772;2.718;2023-04-19T01:50:47;101255.94;;;9.36;100.00
51460;BME280;37534;39.772;2.718;2023-04-19T01:53:12;101252.66;;;9.24;100.00
51460;BME280;37534;39.772;2.718;2023-04-19T01:55:38;101256.03;;;9.29;100.00
51460;BME280;37534;39.772;2.718;2023-04-19T01:58:03;101257.00;;;9.21;100.00
51460;BME280;37534;39.772;2.718;2023-04-19T02:00:29;101245.06;;;9.15;100.00
51460;BME280;37534;39.772;2.718;2023-04-19T02:02:55;101249.31;;;9.16;100.00
51460;BME280;37534;39.772;2.718;2023-04-19T02:05:20;101241.53;;;9.21;100.00
51460;BME280;37534;39.772;2.718;2023-04-19T02:07:46;101231.38;;;9.10;100.00
51460;BME280;37534;39.772;2.718;2023-04-19T02:10:11;101234.78;;;9.12;100.00
51460;BME280;37534;39.772;2.718;2023-04-19T02:12:37;101221.13;;;9.05;100.00
51460;BME280;37534;39.772;2.718;2023-04-19T02:15:03;101235.63;;;9.11;100.00
51460;BME280;37534;39.772;2.718;2023-04-19T02:17:29;101230.47;;;9.11;100.00
51460;BME280;37534;39.772;2.718;2023-04-19T02:19:54;101246.00;;;9.08;100.00
51460;BME280;37534;39.772;2.718;2023-04-19T02:22:20;101222.75;;;9.11;100.00
51460;BME280;37534;39.772;2.718;2023-04-19T02:24:49;101235.56;;;9.20;100.00
51460;BME280;37534;39.772;2.718;2023-04-19T02:27:15;101236.53;;;9.10;100.00
51460;BME280;37534;39.772;2.718;2023-04-19T02:29:41;101237.38;;;9.09;100.00
51460;BME280;37534;39.772;2.718;2023-04-19T02:32:07;101231.41;;;9.05;100.00
51460;BME280;37534;39.772;2.718;2023-04-19T02:34:33;101239.25;;;8.94;100.00
51460;BME280;37534;39.772;2.718;2023-04-19T02:36:59;101235.88;;;8.89;100.00
51460;BME280;37534;39.772;2.718;2023-04-19T02:39:25;101237.63;;;8.87;100.00
51460;BME280;37534;39.772;2.718;2023-04-19T02:41:50;101230.81;;;8.82;100.00
51460;BME280;37534;39.772;2.718;2023-04-19T02:44:16;101242.75;;;8.87;100.00
51460;BME280;37534;39.772;2.718;2023-04-19T02:46:50;101241.91;;;8.87;100.00
51460;BME280;37534;39.772;2.718;2023-04-19T02:49:17;101234.25;;;8.82;100.00
51460;BME280;37534;39.772;2.718;2023-04-19T02:51:43;101244.50;;;8.85;100.00
51460;BME280;37534;39.772;2.718;2023-04-19T02:54:10;101236.78;;;8.84;100.00
51460;BME280;37534;39.772;2.718;2023-04-19T02:56:36;101229.13;;;8.79;100.00
51460;BME280;37534;39.772;2.718;2023-04-19T02:59:02;101232.38;;;8.93;100.00
51460;BME280;37534;39.772;2.718;2023-04-19T03:01:29;101225.66;;;8.85;100.00
51460;BME280;37534;39.772;2.718;2023-04-19T03:03:55;101230.81;;;8.83;100.00
51460;BME280;37534;39.772;2.718;2023-04-19T03:06:20;101223.03;;;8.86;100.00
51460;BME280;37534;39.772;2.718;2023-04-19T03:08:46;101227.41;;;8.81;100.00
51460;BME280;37534;39.772;2.718;2023-04-19T03:11:12;101232.59;;;8.77;100.00
51460;BME280;37534;39.772;2.718;2023-04-19T03:13:37;101220.66;;;8.68;100.00
51460;BME280;37534;39.772;2.718;2023-04-19T03:16:05;101193.44;;;8.45;100.00
51460;BME280;37534;39.772;2.718;2023-04-19T03:18:31;101218.88;;;8.76;100.00
51460;BME280;37534;39.772;2.718;2023-04-19T03:20:56;101217.19;;;8.72;100.00
51460;BME280;37534;39.772;2.718;2023-04-19T03:23:22;101212.19;;;8.58;100.00
51460;BME280;37534;39.772;2.718;2023-04-19T03:25:47;101214.72;;;8.60;100.00
51460;BME280;37534;39.772;2.718;2023-04-19T03:28:13;101210.25;;;8.80;100.00
51460;BME280;37534;39.772;2.718;2023-04-19T03:30:38;101213.72;;;8.76;100.00
51460;BME280;37534;39.772;2.718;2023-04-19T03:33:04;101205.34;;;8.54;100.00
51460;BME280;37534;39.772;2.718;2023-04-19T03:35:29;101196.00;;;8.47;100.00
51460;BME280;37534;39.772;2.718;2023-04-19T03:37:57;101190.94;;;8.36;100.00
51460;BME280;37534;39.772;2.718;2023-04-19T03:40:22;101208.91;;;8.42;100.00
51460;BME280;37534;39.772;2.718;2023-04-19T03:42:48;101196.97;;;8.32;100.00
51460;BME280;37534;39.772;2.718;2023-04-19T03:45:13;101202.03;;;8.41;100.00
51460;BME280;37534;39.772;2.718;2023-04-19T03:47:39;101205.44;;;8.40;100.00
51460;BME280;37534;39.772;2.718;2023-04-19T03:50:04;101205.34;;;8.55;100.00
51460;BME280;37534;39.772;2.718;2023-04-19T03:52:30;101203.72;;;8.45;100.00
51460;BME280;37534;39.772;2.718;2023-04-19T03:54:56;101203.78;;;8.37;100.00
51460;BME280;37534;39.772;2.718;2023-04-19T03:57:26;101200.41;;;8.31;100.00
51460;BME280;37534;39.772;2.718;2023-04-19T03:59:52;101213.22;;;8.37;100.00
51460;BME280;37534;39.772;2.718;2023-04-19T04:02:17;101205.53;;;8.34;100.00
51460;BME280;37534;39.772;2.718;2023-04-19T04:04:43;101211.56;;;8.28;100.00
51460;BME280;37534;39.772;2.718;2023-04-19T04:07:08;101200.50;;;8.18;100.00
51460;BME280;37534;39.772;2.718;2023-04-19T04:09:34;101195.44;;;8.08;100.00
51460;BME280;37534;39.772;2.718;2023-04-19T04:12:00;101201.41;;;8.14;100.00
51460;BME280;37534;39.772;2.718;2023-04-19T04:14:25;101205.53;;;8.31;100.00
51460;BME280;37534;39.772;2.718;2023-04-19T04:16:51;101211.59;;;8.25;100.00
51460;BME280;37534;39.772;2.718;2023-04-19T04:19:17;101209.88;;;8.26;100.00
51460;BME280;37534;39.772;2.718;2023-04-19T04:21:45;101221.09;;;8.15;100.00
51460;BME280;37534;39.772;2.718;2023-04-19T04:24:10;101205.72;;;8.09;100.00
51460;BME280;37534;39.772;2.718;2023-04-19T04:26:36;101204.00;;;8.10;100.00
51460;BME280;37534;39.772;2.718;2023-04-19T04:29:04;101210.00;;;8.09;100.00
51460;BME280;37534;39.772;2.718;2023-04-19T04:31:30;101210.03;;;8.06;100.00
51460;BME280;37534;39.772;2.718;2023-04-19T04:33:56;101212.53;;;8.13;100.00
51460;BME280;37534;39.772;2.718;2023-04-19T04:36:22;101209.94;;;8.19;100.00
51460;BME280;37534;39.772;2.718;2023-04-19T04:38:47;101212.53;;;8.13;100.00
51460;BME280;37534;39.772;2.718;2023-04-19T04:41:13;101212.59;;;8.07;100.00
51460;BME280;37534;39.772;2.718;2023-04-19T04:43:38;101216.06;;;8.00;100.00
51460;BME280;37534;39.772;2.718;2023-04-19T04:46:04;101208.28;;;8.09;100.00
51460;BME280;37534;39.772;2.718;2023-04-19T04:48:30;101215.84;;;8.28;100.00
51460;BME280;37534;39.772;2.718;2023-04-19T04:50:56;101209.13;;;8.10;100.00
51460;BME280;37534;39.772;2.718;2023-04-19T04:53:25;101210.91;;;8.03;100.00
51460;BME280;37534;39.772;2.718;2023-04-19T04:55:52;101210.09;;;7.99;100.00
51460;BME280;37534;39.772;2.718;2023-04-19T04:58:18;101193.66;;;8.17;100.00
51460;BME280;37534;39.772;2.718;2023-04-19T05:00:44;101213.41;;;8.11;100.00
51460;BME280;37534;39.772;2.718;2023-04-19T05:03:09;101214.41;;;7.96;100.00
51460;BME280;37534;39.772;2.718;2023-04-19T05:05:35;101189.63;;;7.89;100.00
51460;BME280;37534;39.772;2.718;2023-04-19T05:08:00;101210.19;;;7.87;100.00
51460;BME280;37534;39.772;2.718;2023-04-19T05:10:26;101211.88;;;7.88;100.00
51460;BME280;37534;39.772;2.718;2023-04-19T05:12:52;101213.59;;;7.89;100.00
51460;BME280;37534;39.772;2.718;2023-04-19T05:15:17;101218.66;;;7.95;100.00
51460;BME280;37534;39.772;2.718;2023-04-19T05:17:43;101210.19;;;7.87;100.00
51460;BME280;37534;39.772;2.718;2023-04-19T05:20:09;101215.25;;;7.98;100.00
51460;BME280;37534;39.772;2.718;2023-04-19T05:22:35;101217.88;;;7.86;100.00
51460;BME280;37534;39.772;2.718;2023-04-19T05:25:00;101231.56;;;7.91;100.00
51460;BME280;37534;39.772;2.718;2023-04-19T05:27:26;101217.72;;;8.10;100.00
51460;BME280;37534;39.772;2.718;2023-04-19T05:29:52;101212.56;;;8.10;100.00
51460;BME280;37534;39.772;2.718;2023-04-19T05:32:18;101223.69;;;8.14;100.00
51460;BME280;37534;39.772;2.718;2023-04-19T05:34:43;101222.03;;;8.07;100.00
51460;BME280;37534;39.772;2.718;2023-04-19T05:37:09;101231.47;;;8.03;100.00
51460;BME280;37534;39.772;2.718;2023-04-19T05:39:34;101221.13;;;8.11;100.00
51460;BME280;37534;39.772;2.718;2023-04-19T05:42:00;101222.88;;;8.09;100.00
51460;BME280;37534;39.772;2.718;2023-04-19T05:44:26;101227.13;;;8.11;100.00
51460;BME280;37534;39.772;2.718;2023-04-19T05:46:51;101231.38;;;8.15;100.00
51460;BME280;37534;39.772;2.718;2023-04-19T05:49:17;101227.03;;;8.21;100.00
51460;BME280;37534;39.772;2.718;2023-04-19T05:51:42;101227.13;;;8.10;100.00
51460;BME280;37534;39.772;2.718;2023-04-19T05:54:08;101236.47;;;8.18;100.00
51460;BME280;37534;39.772;2.718;2023-04-19T05:56:37;101245.84;;;8.26;100.00
51460;BME280;37534;39.772;2.718;2023-04-19T05:59:02;101236.44;;;8.25;100.00
51460;BME280;37534;39.772;2.718;2023-04-19T06:01:28;101239.03;;;8.20;100.00
51460;BME280;37534;39.772;2.718;2023-04-19T06:03:53;101248.41;;;8.29;100.00
51460;BME280;37534;39.772;2.718;2023-04-19T06:06:22;101244.94;;;8.31;100.00
51460;BME280;37534;39.772;2.718;2023-04-19T06:08:48;101248.31;;;8.38;100.00
51460;BME280;37534;39.772;2.718;2023-04-19T06:11:14;101239.84;;;8.28;100.00
51460;BME280;37534;39.772;2.718;2023-04-19T06:13:39;101248.38;;;8.32;100.00
51460;BME280;37534;39.772;2.718;2023-04-19T06:16:06;101246.56;;;8.49;100.00
51460;BME280;37534;39.772;2.718;2023-04-19T06:18:32;101241.44;;;8.45;100.00
51460;BME280;37534;39.772;2.718;2023-04-19T06:20:57;101246.56;;;8.48;100.00
51460;BME280;37534;39.772;2.718;2023-04-19T06:23:23;101242.28;;;8.47;100.00
51460;BME280;37534;39.772;2.718;2023-04-19T06:25:49;101242.25;;;8.53;100.00
51460;BME280;37534;39.772;2.718;2023-04-19T06:28:15;101241.25;;;8.68;100.00
51460;BME280;37534;39.772;2.718;2023-04-19T06:30:41;101243.84;;;8.65;100.00
51460;BME280;37534;39.772;2.718;2023-04-19T06:33:06;101248.72;;;8.91;100.00
51460;BME280;37534;39.772;2.718;2023-04-19T06:35:32;101257.94;;;9.12;100.00
51460;BME280;37534;39.772;2.718;2023-04-19T06:37:58;101248.34;;;9.26;100.00
51460;BME280;37534;39.772;2.718;2023-04-19T06:40:24;101251.41;;;9.56;100.00
51460;BME280;37534;39.772;2.718;2023-04-19T06:42:49;101244.19;;;9.81;100.00
51460;BME280;37534;39.772;2.718;2023-04-19T06:45:15;101251.47;;;10.11;100.00
51460;BME280;37534;39.772;2.718;2023-04-19T06:47:40;101244.16;;;10.40;100.00
51460;BME280;37534;39.772;2.718;2023-04-19T06:50:06;101254.84;;;10.70;100.00
51460;BME280;37534;39.772;2.718;2023-04-19T06:52:32;101252.56;;;11.01;100.00
51460;BME280;37534;39.772;2.718;2023-04-19T06:54:57;101250.47;;;11.19;100.00
51460;BME280;37534;39.772;2.718;2023-04-19T06:57:23;101251.81;;;11.37;100.00
51460;BME280;37534;39.772;2.718;2023-04-19T06:59:49;101252.25;;;11.59;100.00
51460;BME280;37534;39.772;2.718;2023-04-19T07:02:15;101256.91;;;11.82;100.00
51460;BME280;37534;39.772;2.718;2023-04-19T07:04:40;101253.88;;;12.02;97.22
51460;BME280;37534;39.772;2.718;2023-04-19T07:07:06;101254.34;;;12.20;96.70
51460;BME280;37534;39.772;2.718;2023-04-19T07:09:31;101250.63;;;12.31;97.89
51460;BME280;37534;39.772;2.718;2023-04-19T07:11:57;101257.78;;;12.56;96.38
51460;BME280;37534;39.772;2.718;2023-04-19T07:14:22;101250.28;;;12.78;93.42
51460;BME280;37534;39.772;2.718;2023-04-19T07:16:48;101250.47;;;13.03;91.80
51460;BME280;37534;39.772;2.718;2023-04-19T07:19:13;101238.88;;;13.17;90.27
51460;BME280;37534;39.772;2.718;2023-04-19T07:21:39;101246.06;;;13.38;90.45
51460;BME280;37534;39.772;2.718;2023-04-19T07:24:05;101247.22;;;13.58;84.83
51460;BME280;37534;39.772;2.718;2023-04-19T07:26:31;101238.28;;;13.68;83.57
51460;BME280;37534;39.772;2.718;2023-04-19T07:28:58;101247.84;;;13.93;80.45
51460;BME280;37534;39.772;2.718;2023-04-19T07:31:24;101252.47;;;14.11;81.22
51460;BME280;37534;39.772;2.718;2023-04-19T07:33:50;101246.81;;;14.26;80.34
51460;BME280;37534;39.772;2.718;2023-04-19T07:36:16;101257.97;;;14.55;78.86
51460;BME280;37534;39.772;2.718;2023-04-19T07:38:41;101241.94;;;14.69;77.92
51460;BME280;37534;39.772;2.718;2023-04-19T07:41:07;101253.00;;;14.99;76.20
51460;BME280;37534;39.772;2.718;2023-04-19T07:43:33;101247.81;;;15.23;71.35
51460;BME280;37534;39.772;2.718;2023-04-19T07:45:59;101248.88;;;15.41;71.33
51460;BME280;37534;39.772;2.718;2023-04-19T07:48:25;101254.81;;;15.67;69.54
51460;BME280;37534;39.772;2.718;2023-04-19T07:50:50;101261.53;;;15.96;69.87
51460;BME280;37534;39.772;2.718;2023-04-19T07:53:16;101252.78;;;16.19;70.01
51460;BME280;37534;39.772;2.718;2023-04-19T07:55:42;101254.00;;;16.53;67.29
51460;BME280;37534;39.772;2.718;2023-04-19T07:58:08;101251.88;;;16.83;63.68
51460;BME280;37534;39.772;2.718;2023-04-19T08:00:33;101246.34;;;17.10;56.18
51460;BME280;37534;39.772;2.718;2023-04-19T08:03:01;101238.19;;;17.37;54.87
51460;BME280;37534;39.772;2.718;2023-04-19T08:05:26;101247.81;;;17.73;55.93
51460;BME280;37534;39.772;2.718;2023-04-19T08:07:52;101245.44;;;18.04;52.49
51460;BME280;37534;39.772;2.718;2023-04-19T08:10:19;101246.94;;;18.28;49.92
51460;BME280;37534;39.772;2.718;2023-04-19T08:12:45;101249.75;;;18.58;50.43
51460;BME280;37534;39.772;2.718;2023-04-19T08:15:10;101237.78;;;18.89;48.64
51460;BME280;37534;39.772;2.718;2023-04-19T08:17:36;101244.72;;;19.22;46.61
51460;BME280;37534;39.772;2.718;2023-04-19T08:20:01;101243.84;;;19.38;46.13
51460;BME280;37534;39.772;2.718;2023-04-19T08:22:28;101247.06;;;19.75;47.19
51460;BME280;37534;39.772;2.718;2023-04-19T08:24:53;101255.38;;;19.98;45.29
51460;BME280;37534;39.772;2.718;2023-04-19T08:27:19;101260.28;;;20.35;45.21
51460;BME280;37534;39.772;2.718;2023-04-19T08:29:45;101256.03;;;20.62;43.73
51460;BME280;37534;39.772;2.718;2023-04-19T08:32:13;101253.47;;;20.91;42.27
51460;BME280;37534;39.772;2.718;2023-04-19T08:34:39;101250.84;;;21.20;41.53
51460;BME280;37534;39.772;2.718;2023-04-19T08:37:05;101261.22;;;21.50;41.99
51460;BME280;37534;39.772;2.718;2023-04-19T08:39:34;101263.09;;;21.75;41.17
51460;BME280;37534;39.772;2.718;2023-04-19T08:42:09;101267.28;;;21.92;39.26
51460;BME280;37534;39.772;2.718;2023-04-19T08:44:36;101268.59;;;22.12;40.18
51460;BME280;37534;39.772;2.718;2023-04-19T08:47:05;101274.56;;;22.42;39.85
51460;BME280;37534;39.772;2.718;2023-04-19T08:49:34;101267.66;;;22.66;39.80
51460;BME280;37534;39.772;2.718;2023-04-19T08:52:01;101267.53;;;22.93;38.90
51460;BME280;37534;39.772;2.718;2023-04-19T08:54:30;101277.75;;;23.11;38.60
51460;BME280;37534;39.772;2.718;2023-04-19T08:56:59;101265.31;;;23.26;37.74
51460;BME280;37534;39.772;2.718;2023-04-19T08:59:26;101274.72;;;23.54;37.18
51460;BME280;37534;39.772;2.718;2023-04-19T09:01:53;101274.94;;;23.75;35.90
51460;BME280;37534;39.772;2.718;2023-04-19T09:04:20;101279.53;;;23.97;36.31
51460;BME280;37534;39.772;2.718;2023-04-19T09:06:47;101284.94;;;24.42;35.35
51460;BME280;37534;39.772;2.718;2023-04-19T09:09:24;101283.28;;;24.77;34.80
51460;BME280;37534;39.772;2.718;2023-04-19T09:11:50;101267.78;;;25.06;33.22
51460;BME280;37534;39.772;2.718;2023-04-19T09:14:17;101270.13;;;25.66;33.12
51460;BME280;37534;39.772;2.718;2023-04-19T09:16:43;101275.78;;;26.05;31.73
51460;BME280;37534;39.772;2.718;2023-04-19T09:19:09;101275.50;;;26.40;31.31
51460;BME280;37534;39.772;2.718;2023-04-19T09:21:37;101274.38;;;26.85;30.96
51460;BME280;37534;39.772;2.718;2023-04-19T09:24:03;101277.09;;;27.35;29.89
51460;BME280;37534;39.772;2.718;2023-04-19T09:26:29;101270.16;;;27.73;29.27
51460;BME280;37534;39.772;2.718;2023-04-19T09:28:59;101280.09;;;28.10;28.97
51460;BME280;37534;39.772;2.718;2023-04-19T09:31:29;101274.47;;;28.42;28.54
51460;BME280;37534;39.772;2.718;2023-04-19T09:33:55;101276.56;;;28.58;27.07
51460;BME280;37534;39.772;2.718;2023-04-19T09:36:31;101281.66;;;28.89;27.00
51460;BME280;37534;39.772;2.718;2023-04-19T09:38:58;101276.03;;;29.30;27.86
51460;BME280;37534;39.772;2.718;2023-04-19T09:41:24;101279.69;;;29.65;27.80
51460;BME280;37534;39.772;2.718;2023-04-19T09:43:51;101269.84;;;29.29;28.72
51460;BME280;37534;39.772;2.718;2023-04-19T09:46:30;101268.91;;;29.66;28.18
51460;BME280;37534;39.772;2.718;2023-04-19T09:51:47;101269.88;;;30.37;27.84
51460;BME280;37534;39.772;2.718;2023-04-19T09:54:16;101263.72;;;30.63;26.88
51460;BME280;37534;39.772;2.718;2023-04-19T09:56:42;101274.25;;;30.73;27.11
51460;BME280;37534;39.772;2.718;2023-04-19T09:59:09;101263.25;;;30.94;27.16
51460;BME280;37534;39.772;2.718;2023-04-19T10:01:42;101260.31;;;31.13;26.86
51460;BME280;37534;39.772;2.718;2023-04-19T10:04:10;101264.66;;;31.22;27.08
51460;BME280;37534;39.772;2.718;2023-04-19T10:06:37;101259.09;;;31.58;26.60
51460;BME280;37534;39.772;2.718;2023-04-19T10:09:04;101256.28;;;31.76;25.31
51460;BME280;37534;39.772;2.718;2023-04-19T10:11:35;101256.13;;;31.70;24.85
51460;BME280;37534;39.772;2.718;2023-04-19T10:14:10;101256.22;;;31.43;24.58
51460;BME280;37534;39.772;2.718;2023-04-19T10:16:37;101248.44;;;31.75;25.92
51460;BME280;37534;39.772;2.718;2023-04-19T10:19:18;101256.97;;;32.19;23.72
51460;BME280;37534;39.772;2.718;2023-04-19T10:21:46;101255.06;;;32.61;24.18
51460;BME280;37534;39.772;2.718;2023-04-19T10:24:12;101253.22;;;32.62;23.91
51460;BME280;37534;39.772;2.718;2023-04-19T10:29:58;101238.31;;;32.84;23.02
51460;BME280;37534;39.772;2.718;2023-04-19T10:32:28;101242.38;;;32.63;23.38
51460;BME280;37534;39.772;2.718;2023-04-19T10:34:54;101236.75;;;32.89;23.89
51460;BME280;37534;39.772;2.718;2023-04-19T10:37:24;101236.63;;;32.83;24.00
51460;BME280;37534;39.772;2.718;2023-04-19T10:39:50;101238.97;;;32.77;23.13
51460;BME280;37534;39.772;2.718;2023-04-19T10:42:16;101239.28;;;32.91;23.84
51460;BME280;37534;39.772;2.718;2023-04-19T10:44:41;101235.84;;;33.13;23.62
51460;BME280;37534;39.772;2.718;2023-04-19T10:47:07;101221.94;;;32.87;24.42
51460;BME280;37534;39.772;2.718;2023-04-19T10:49:44;101217.78;;;33.07;25.06
51460;BME280;37534;39.772;2.718;2023-04-19T10:52:26;101221.56;;;32.90;24.30
51460;BME280;37534;39.772;2.718;2023-04-19T10:54:56;101218.25;;;32.15;25.12
51460;BME280;37534;39.772;2.718;2023-04-19T10:57:22;101207.19;;;32.91;24.98
51460;BME280;37534;39.772;2.718;2023-04-19T11:00:18;101217.66;;;32.53;24.86
51460;BME280;37534;39.772;2.718;2023-04-19T11:02:49;101207.88;;;33.24;24.57
51460;BME280;37534;39.772;2.718;2023-04-19T11:05:15;101202.06;;;33.67;22.93
51460;BME280;37534;39.772;2.718;2023-04-19T11:07:41;101206.06;;;32.37;24.55
51460;BME280;37534;39.772;2.718;2023-04-19T11:10:07;101196.63;;;33.29;23.30
51460;BME280;37534;39.772;2.718;2023-04-19T11:12:33;101196.50;;;33.22;23.36
51460;BME280;37534;39.772;2.718;2023-04-19T11:14:59;101192.59;;;33.02;24.22
51460;BME280;37534;39.772;2.718;2023-04-19T11:17:30;101191.78;;;31.56;26.20
51460;BME280;37534;39.772;2.718;2023-04-19T11:22:24;101186.03;;;31.18;27.77
51460;BME280;37534;39.772;2.718;2023-04-19T11:24:51;101170.72;;;31.20;25.36
51460;BME280;37534;39.772;2.718;2023-04-19T11:27:16;101178.94;;;31.60;25.52
51460;BME280;37534;39.772;2.718;2023-04-19T11:29:42;101172.91;;;32.63;24.92
51460;BME280;37534;39.772;2.718;2023-04-19T11:32:07;101171.00;;;33.58;24.81
51460;BME280;37534;39.772;2.718;2023-04-19T11:34:37;101164.03;;;34.09;24.61
51460;BME280;37534;39.772;2.718;2023-04-19T11:37:02;101166.53;;;33.35;24.28
51460;BME280;37534;39.772;2.718;2023-04-19T11:39:28;101164.75;;;32.96;24.28
51460;BME280;37534;39.772;2.718;2023-04-19T11:41:53;101152.31;;;32.80;24.17
51460;BME280;37534;39.772;2.718;2023-04-19T11:44:19;101154.38;;;33.01;25.19
51460;BME280;37534;39.772;2.718;2023-04-19T11:47:02;101151.03;;;32.28;24.75
51460;BME280;37534;39.772;2.718;2023-04-19T11:49:29;101141.13;;;32.37;24.44
51460;BME280;37534;39.772;2.718;2023-04-19T11:51:59;101140.72;;;32.00;25.76
51460;BME280;37534;39.772;2.718;2023-04-19T11:54:26;101138.97;;;32.80;24.84
51460;BME280;37534;39.772;2.718;2023-04-19T11:59:28;101129.38;;;33.40;23.76
51460;BME280;37534;39.772;2.718;2023-04-19T12:01:54;101115.56;;;33.13;24.91
51460;BME280;37534;39.772;2.718;2023-04-19T12:04:20;101130.88;;;33.58;24.47
51460;BME280;37534;39.772;2.718;2023-04-19T12:06:55;101122.09;;;33.49;23.53
51460;BME280;37534;39.772;2.718;2023-04-19T12:09:21;101111.84;;;33.38;25.11
51460;BME280;37534;39.772;2.718;2023-04-19T12:11:47;101107.88;;;34.01;23.85
51460;BME280;37534;39.772;2.718;2023-04-19T12:14:17;101108.63;;;34.25;24.06
51460;BME280;37534;39.772;2.718;2023-04-19T12:17:22;101105.81;;;33.21;23.96
51460;BME280;37534;39.772;2.718;2023-04-19T12:19:48;101093.91;;;33.23;24.81
51460;BME280;37534;39.772;2.718;2023-04-19T12:22:16;101097.34;;;33.70;25.48
51460;BME280;37534;39.772;2.718;2023-04-19T12:24:44;101097.69;;;33.29;24.84
51460;BME280;37534;39.772;2.718;2023-04-19T12:27:10;101081.56;;;33.75;24.96
51460;BME280;37534;39.772;2.718;2023-04-19T12:29:36;101090.69;;;34.40;24.05
51460;BME280;37534;39.772;2.718;2023-04-19T12:32:02;101088.88;;;33.43;24.35
51460;BME280;37534;39.772;2.718;2023-04-19T12:34:28;101087.06;;;33.59;23.92
51460;BME280;37534;39.772;2.718;2023-04-19T12:36:54;101089.63;;;33.37;25.00
51460;BME280;37534;39.772;2.718;2023-04-19T12:39:20;101073.56;;;32.68;25.29
51460;BME280;37534;39.772;2.718;2023-04-19T12:41:45;101079.09;;;32.58;26.82
51460;BME280;37534;39.772;2.718;2023-04-19T12:44:14;101077.19;;;33.59;25.03
51460;BME280;37534;39.772;2.718;2023-04-19T12:46:40;101073.25;;;33.17;25.80
51460;BME280;37534;39.772;2.718;2023-04-19T12:49:06;101069.09;;;32.83;25.25
51460;BME280;37534;39.772;2.718;2023-04-19T12:51:32;101062.47;;;32.16;26.55
51460;BME280;37534;39.772;2.718;2023-04-19T12:53:58;101062.91;;;32.28;26.31
51460;BME280;37534;39.772;2.718;2023-04-19T12:56:24;101070.88;;;32.36;26.70
51460;BME280;37534;39.772;2.718;2023-04-19T12:58:49;101058.97;;;32.78;26.06